Time;durP1;ratioP1;P1;durP2;ratioP2;P2;SDS_P1;SDS_P2;PMS_P1;PMS_P2;Temp;Humidity;BMP_temperature;BMP_pressure;BME280_temperature;BME280_humidity;BME280_pressure;Samples;Min_cycle;Max_cycle;Signal;HPM_P1;HPM_P2
2021/04/09 00:00:54;;;;;;;10.73;9.10;;;0.20;62.60;;;;;;5159105;27;20483;-82
2021/04/09 00:03:21;;;;;;;11.03;8.60;;;0.20;62.50;;;;;;5165686;27;20449;-83
2021/04/09 00:05:48;;;;;;;12.00;9.77;;;0.10;62.40;;;;;;5175409;27;20454;-82
2021/04/09 00:08:15;;;;;;;10.93;8.73;;;0.20;62.60;;;;;;5154121;27;20494;-82
2021/04/09 00:10:43;;;;;;;18.20;10.03;;;0.10;62.30;;;;;;5163047;27;20449;-82
2021/04/09 00:13:10;;;;;;;11.97;9.70;;;0.10;62.50;;;;;;5165625;27;20520;-82
2021/04/09 00:15:37;;;;;;;9.57;8.57;;;0.10;62.50;;;;;;5157781;27;20473;-83
2021/04/09 00:18:04;;;;;;;11.10;8.30;;;0.10;62.80;;;;;;5150173;27;20535;-82
2021/04/09 00:20:31;;;;;;;9.37;8.47;;;0.10;62.80;;;;;;5130674;27;20443;-83
2021/04/09 00:22:58;;;;;;;11.43;9.23;;;0.10;62.90;;;;;;5156093;27;20525;-82
2021/04/09 00:25:25;;;;;;;10.23;8.60;;;0.10;62.90;;;;;;5120929;27;20458;-83
2021/04/09 00:27:53;;;;;;;11.23;9.27;;;0.00;63.00;;;;;;5150335;27;20447;-83
2021/04/09 00:30:26;;;;;;;11.47;8.60;;;0.10;63.10;;;;;;5126329;27;20993;-82
2021/04/09 00:32:56;;;;;;;14.63;9.60;;;0.00;62.90;;;;;;5147924;27;20442;-83
2021/04/09 00:35:22;;;;;;;11.13;8.70;;;0.00;63.30;;;;;;5136104;27;20458;-84
2021/04/09 00:37:50;;;;;;;13.00;9.30;;;-0.10;63.40;;;;;;5160314;27;20477;-84
2021/04/09 00:40:17;;;;;;;14.23;10.03;;;0.00;63.60;;;;;;5162481;27;20435;-84
2021/04/09 00:42:43;;;;;;;12.17;9.43;;;-0.10;63.70;;;;;;5171175;27;20515;-84
2021/04/09 00:45:13;;;;;;;13.30;9.20;;;-0.10;64.00;;;;;;5163146;27;20477;-83
2021/04/09 00:47:40;;;;;;;12.10;9.93;;;-0.10;64.20;;;;;;5159895;27;20456;-84
2021/04/09 00:50:08;;;;;;;11.57;9.60;;;-0.20;64.50;;;;;;5162747;27;20481;-83
2021/04/09 00:52:36;;;;;;;9.73;8.00;;;-0.20;64.70;;;;;;5142954;27;20450;-83
2021/04/09 00:55:04;;;;;;;10.97;9.27;;;-0.20;64.60;;;;;;5146346;27;20537;-86
2021/04/09 00:57:31;;;;;;;11.57;9.00;;;-0.20;64.30;;;;;;5147516;27;20461;-85
2021/04/09 00:59:58;;;;;;;10.90;8.37;;;-0.20;64.50;;;;;;5145487;27;20454;-85
2021/04/09 01:02:26;;;;;;;9.93;9.03;;;-0.30;64.60;;;;;;5132524;27;20452;-85
2021/04/09 01:04:54;;;;;;;9.60;8.63;;;-0.30;64.60;;;;;;5132378;27;20445;-85
2021/04/09 01:07:21;;;;;;;10.27;7.90;;;-0.30;64.70;;;;;;5148674;27;20498;-85
2021/04/09 01:09:50;;;;;;;12.40;9.07;;;-0.30;64.50;;;;;;5153805;27;20462;-85
2021/04/09 01:12:17;;;;;;;14.93;9.40;;;-0.20;64.70;;;;;;5144722;27;20446;-85
2021/04/09 01:14:45;;;;;;;15.00;8.43;;;-0.30;64.20;;;;;;5157262;27;20458;-84
2021/04/09 01:17:19;;;;;;;12.27;8.40;;;-0.30;64.30;;;;;;5131240;27;20469;-85
2021/04/09 01:20:19;;;;;;;10.27;8.30;;;-0.20;64.30;;;;;;5148957;27;20860;-85
2021/04/09 01:22:51;;;;;;;9.83;8.10;;;-0.20;64.20;;;;;;5145874;27;20476;-85
2021/04/09 01:25:49;;;;;;;10.03;9.03;;;-0.10;64.20;;;;;;5158445;27;20525;-85
2021/04/09 01:28:19;;;;;;;11.50;9.37;;;-0.10;64.00;;;;;;5149923;27;20473;-84
2021/04/09 01:30:56;;;;;;;9.97;8.87;;;-0.10;64.00;;;;;;5149727;27;20831;-84
2021/04/09 01:33:31;;;;;;;8.87;7.63;;;-0.10;64.20;;;;;;5134655;27;20455;-85
2021/04/09 01:36:02;;;;;;;11.73;8.10;;;-0.10;64.00;;;;;;5147217;27;20441;-85
2021/04/09 01:38:33;;;;;;;10.37;8.80;;;-0.10;64.10;;;;;;5150249;27;20456;-85
2021/04/09 01:41:04;;;;;;;10.67;8.50;;;0.00;64.30;;;;;;5153346;27;20534;-84
2021/04/09 01:43:32;;;;;;;9.10;7.87;;;0.00;64.10;;;;;;5155820;27;20445;-84
2021/04/09 01:46:02;;;;;;;11.33;8.40;;;0.00;64.20;;;;;;5157042;27;20462;-85
2021/04/09 01:48:31;;;;;;;10.07;8.23;;;0.00;64.10;;;;;;5149660;27;20480;-84
2021/04/09 01:50:59;;;;;;;11.97;8.80;;;0.00;63.90;;;;;;5138816;27;20504;-85
2021/04/09 01:53:28;;;;;;;11.63;8.87;;;0.00;64.00;;;;;;5154603;27;20525;-85
2021/04/09 01:55:57;;;;;;;10.87;8.77;;;0.00;64.10;;;;;;5141310;27;20453;-85
2021/04/09 01:58:26;;;;;;;11.10;8.60;;;0.00;64.10;;;;;;5140358;27;20504;-85
2021/04/09 02:00:53;;;;;;;8.90;8.00;;;0.00;64.30;;;;;;5163308;27;20461;-86
2021/04/09 02:03:22;;;;;;;10.20;8.37;;;-0.10;64.30;;;;;;5154167;27;20446;-84
2021/04/09 02:05:52;;;;;;;16.13;8.63;;;-0.10;64.50;;;;;;5149464;27;20457;-83
2021/04/09 02:08:20;;;;;;;11.77;8.30;;;-0.10;64.60;;;;;;5157089;27;20483;-84
2021/04/09 02:10:48;;;;;;;9.73;7.83;;;-0.10;64.70;;;;;;5149043;27;20449;-83
2021/04/09 02:13:15;;;;;;;10.77;8.90;;;-0.10;64.90;;;;;;5173185;27;20445;-83
2021/04/09 02:15:43;;;;;;;11.63;8.50;;;-0.10;64.80;;;;;;5179403;27;20442;-83
2021/04/09 02:18:12;;;;;;;14.20;10.00;;;-0.10;65.00;;;;;;5141476;27;20487;-84
2021/04/09 02:20:39;;;;;;;13.27;9.37;;;-0.10;65.10;;;;;;5175115;27;20449;-85
2021/04/09 02:23:06;;;;;;;10.63;9.53;;;-0.10;65.50;;;;;;5162572;27;20453;-85
2021/04/09 02:25:33;;;;;;;12.97;9.10;;;-0.20;65.80;;;;;;5172239;27;20508;-83
2021/04/09 02:28:00;;;;;;;13.97;9.77;;;-0.10;66.00;;;;;;5151405;27;20456;-85
2021/04/09 02:30:26;;;;;;;12.60;9.30;;;-0.10;66.00;;;;;;5157581;27;20464;-85
2021/04/09 02:32:53;;;;;;;12.90;9.27;;;-0.10;66.10;;;;;;5132417;27;20514;-85
2021/04/09 02:35:19;;;;;;;12.50;9.70;;;-0.20;66.20;;;;;;5157347;27;20932;-86
2021/04/09 02:37:51;;;;;;;11.47;9.63;;;-0.20;66.40;;;;;;5134903;27;20469;-85
2021/04/09 02:40:21;;;;;;;9.53;8.63;;;-0.20;66.50;;;;;;5159407;27;20445;-85
2021/04/09 02:42:50;;;;;;;13.90;11.10;;;-0.10;66.70;;;;;;5144417;27;20438;-85
2021/04/09 02:45:19;;;;;;;14.90;10.00;;;-0.10;66.90;;;;;;5154668;27;20441;-84
2021/04/09 02:47:47;;;;;;;11.87;10.10;;;-0.10;67.00;;;;;;5150546;27;20449;-85
2021/04/09 02:50:17;;;;;;;12.87;8.97;;;-0.20;66.90;;;;;;5135636;27;20525;-85
2021/04/09 02:52:49;;;;;;;11.20;9.57;;;-0.20;67.10;;;;;;5150299;27;20442;-85
2021/04/09 02:55:20;;;;;;;14.10;9.60;;;-0.20;67.60;;;;;;5158926;27;20458;-85
2021/04/09 02:57:49;;;;;;;13.07;10.70;;;-0.20;67.70;;;;;;5153656;27;20449;-85
2021/04/09 03:00:18;;;;;;;11.50;10.00;;;-0.20;68.00;;;;;;5149625;27;20523;-85
2021/04/09 03:02:46;;;;;;;11.90;9.97;;;-0.20;67.80;;;;;;5155544;27;20443;-85
2021/04/09 03:05:15;;;;;;;15.30;10.47;;;-0.30;67.90;;;;;;5166411;27;20453;-85
2021/04/09 03:07:42;;;;;;;12.20;10.10;;;-0.30;68.50;;;;;;5162685;27;20919;-85
2021/04/09 03:10:11;;;;;;;12.73;11.37;;;-0.20;68.70;;;;;;5154190;27;20472;-85
2021/04/09 03:12:40;;;;;;;15.10;10.50;;;-0.20;68.80;;;;;;5153102;27;20510;-83
2021/04/09 03:15:10;;;;;;;11.93;10.27;;;-0.20;68.60;;;;;;5157880;27;20441;-85
2021/04/09 03:17:40;;;;;;;19.70;10.50;;;-0.30;68.90;;;;;;5159501;27;20490;-85
2021/04/09 03:20:08;;;;;;;14.40;11.20;;;-0.20;69.20;;;;;;5165090;27;20446;-85
2021/04/09 03:22:36;;;;;;;15.60;10.80;;;-0.20;69.20;;;;;;5161159;27;20454;-83
2021/04/09 03:25:04;;;;;;;12.70;10.67;;;-0.20;69.20;;;;;;5168241;27;20483;-84
2021/04/09 03:27:31;;;;;;;11.07;9.97;;;-0.20;69.30;;;;;;5156812;27;20449;-84
2021/04/09 03:29:58;;;;;;;14.37;11.17;;;-0.30;69.50;;;;;;5166858;27;20487;-84
2021/04/09 03:32:27;;;;;;;13.07;11.50;;;-0.20;69.80;;;;;;5154154;27;20445;-84
2021/04/09 03:34:54;;;;;;;16.50;11.33;;;-0.20;69.80;;;;;;5169330;27;20551;-84
2021/04/09 03:37:22;;;;;;;14.53;11.23;;;-0.20;70.00;;;;;;5161970;27;20569;-84
2021/04/09 03:39:48;;;;;;;13.20;10.27;;;-0.20;70.00;;;;;;5169440;27;20440;-86
2021/04/09 03:42:15;;;;;;;16.17;11.10;;;-0.20;69.90;;;;;;5165298;27;20453;-84
2021/04/09 03:44:44;;;;;;;14.27;11.20;;;-0.20;70.20;;;;;;5137107;27;20521;-84
2021/04/09 03:47:12;;;;;;;14.90;11.43;;;-0.20;70.10;;;;;;5152754;27;20461;-84
2021/04/09 03:49:39;;;;;;;12.63;11.33;;;-0.20;70.10;;;;;;5142212;27;20470;-84
2021/04/09 03:52:06;;;;;;;16.03;11.60;;;-0.20;70.10;;;;;;5150448;27;20485;-85
2021/04/09 03:54:34;;;;;;;14.20;11.40;;;-0.20;70.20;;;;;;5142112;27;20464;-85
2021/04/09 03:57:01;;;;;;;13.67;11.70;;;-0.20;70.30;;;;;;5147358;27;20541;-84
2021/04/09 03:59:27;;;;;;;14.53;11.77;;;-0.10;70.60;;;;;;5167321;27;20442;-85
2021/04/09 04:01:54;;;;;;;15.13;10.60;;;-0.20;70.50;;;;;;5158719;27;20670;-85
2021/04/09 04:04:21;;;;;;;11.83;10.57;;;-0.10;70.50;;;;;;5159754;27;20481;-85
2021/04/09 04:06:49;;;;;;;12.97;11.63;;;-0.20;70.70;;;;;;5158791;27;20455;-85
2021/04/09 04:09:16;;;;;;;14.90;11.87;;;-0.20;70.70;;;;;;5124989;27;20469;-85
2021/04/09 04:11:42;;;;;;;15.07;12.13;;;-0.20;71.30;;;;;;5160274;27;20456;-84
2021/04/09 04:14:10;;;;;;;16.80;11.73;;;-0.20;71.40;;;;;;5166154;27;20510;-85
2021/04/09 04:16:36;;;;;;;15.83;12.03;;;-0.30;71.40;;;;;;5167138;27;20445;-85
2021/04/09 04:19:03;;;;;;;18.63;12.00;;;-0.30;72.10;;;;;;5157378;27;20484;-84
2021/04/09 04:21:34;;;;;;;14.10;11.77;;;-0.30;72.20;;;;;;5160981;27;20454;-84
2021/04/09 04:24:02;;;;;;;17.50;13.10;;;-0.30;72.10;;;;;;5162660;27;20457;-84
2021/04/09 04:26:30;;;;;;;15.50;11.93;;;-0.30;72.30;;;;;;5168442;27;20446;-86
2021/04/09 04:28:58;;;;;;;15.30;12.10;;;-0.30;72.70;;;;;;5170774;27;20475;-85
2021/04/09 04:31:24;;;;;;;17.17;12.50;;;-0.30;72.80;;;;;;5153279;27;20448;-85
2021/04/09 04:33:51;;;;;;;15.27;13.47;;;-0.40;73.10;;;;;;5132177;27;21003;-85
2021/04/09 04:36:18;;;;;;;19.77;12.10;;;-0.40;73.30;;;;;;5158496;27;20563;-84
2021/04/09 04:38:46;;;;;;;14.50;11.53;;;-0.30;73.70;;;;;;5137796;27;20452;-84
2021/04/09 04:41:13;;;;;;;15.03;12.17;;;-0.30;73.70;;;;;;5157845;27;20458;-84
2021/04/09 04:43:39;;;;;;;14.70;12.10;;;-0.40;73.60;;;;;;5151595;27;21005;-84
2021/04/09 04:46:07;;;;;;;18.10;12.43;;;-0.30;74.00;;;;;;5124233;27;20453;-84
2021/04/09 04:48:33;;;;;;;12.90;11.60;;;-0.30;73.70;;;;;;5159690;27;20524;-84
2021/04/09 04:51:01;;;;;;;16.87;12.43;;;-0.30;73.70;;;;;;5155867;27;20559;-86
2021/04/09 04:53:28;;;;;;;16.97;13.20;;;-0.30;73.40;;;;;;5152561;27;20464;-84
2021/04/09 04:55:59;;;;;;;15.83;11.80;;;-0.10;73.40;;;;;;5152743;27;20454;-84
2021/04/09 04:58:26;;;;;;;13.50;12.10;;;0.00;72.60;;;;;;5137318;27;20446;-85
2021/04/09 05:00:53;;;;;;;15.03;12.40;;;0.00;72.40;;;;;;5150246;27;20524;-85
2021/04/09 05:03:20;;;;;;;13.30;11.40;;;0.10;72.10;;;;;;5154788;27;20468;-86
2021/04/09 05:05:47;;;;;;;14.37;12.20;;;0.20;71.60;;;;;;5150858;27;20505;-85
2021/04/09 05:08:14;;;;;;;21.03;12.93;;;0.40;71.20;;;;;;5150292;27;20450;-85
2021/04/09 05:10:40;;;;;;;15.20;12.20;;;0.60;70.60;;;;;;5148729;27;20519;-86
2021/04/09 05:13:08;;;;;;;16.30;13.57;;;0.90;69.60;;;;;;5147401;27;20497;-86
2021/04/09 05:15:36;;;;;;;18.87;12.90;;;1.10;68.80;;;;;;5152210;27;20467;-84
2021/04/09 05:18:04;;;;;;;14.80;12.57;;;1.60;68.10;;;;;;5153246;27;20462;-85
2021/04/09 05:20:31;;;;;;;14.57;12.20;;;1.50;66.90;;;;;;5157957;27;20454;-84
2021/04/09 05:22:58;;;;;;;16.27;11.93;;;1.80;66.70;;;;;;5137507;27;21175;-83
2021/04/09 05:25:25;;;;;;;15.00;11.73;;;2.30;66.10;;;;;;5152292;27;20441;-85
2021/04/09 05:27:51;;;;;;;16.83;11.67;;;2.10;65.10;;;;;;5153917;27;20449;-86
2021/04/09 05:30:20;;;;;;;15.80;12.23;;;1.90;64.80;;;;;;5153381;27;20458;-85
2021/04/09 05:32:48;;;;;;;12.47;11.27;;;2.20;64.80;;;;;;5132083;27;20468;-85
2021/04/09 05:35:15;;;;;;;18.90;12.90;;;2.30;64.20;;;;;;5153747;27;20473;-84
2021/04/09 05:37:42;;;;;;;16.30;11.60;;;2.30;64.50;;;;;;5157086;27;20474;-84
2021/04/09 05:40:10;;;;;;;14.90;11.87;;;2.40;64.50;;;;;;5139580;27;20441;-85
2021/04/09 05:42:37;;;;;;;13.10;11.77;;;2.40;63.50;;;;;;5126768;27;20458;-84
2021/04/09 05:45:06;;;;;;;15.97;12.60;;;2.60;63.70;;;;;;5154682;27;20449;-85
2021/04/09 05:47:33;;;;;;;14.53;11.70;;;2.70;63.10;;;;;;5164328;27;20438;-86
2021/04/09 05:50:00;;;;;;;13.03;11.17;;;2.90;62.80;;;;;;5160038;27;20481;-85
2021/04/09 05:52:27;;;;;;;14.80;12.00;;;2.90;62.30;;;;;;5165566;27;20450;-86
2021/04/09 05:54:53;;;;;;;15.83;12.07;;;3.00;62.10;;;;;;5162704;27;20457;-86
2021/04/09 05:57:20;;;;;;;12.73;11.20;;;3.00;61.80;;;;;;5159444;27;20457;-85
2021/04/09 05:59:47;;;;;;;15.23;12.43;;;3.10;61.60;;;;;;5155866;27;20951;-86
2021/04/09 06:02:15;;;;;;;14.67;12.23;;;3.20;61.40;;;;;;5149043;27;20541;-86
2021/04/09 06:04:43;;;;;;;14.77;12.37;;;3.20;61.10;;;;;;5150139;27;20445;-86
2021/04/09 06:07:11;;;;;;;13.57;12.17;;;3.20;61.10;;;;;;5154802;27;20438;-83
2021/04/09 06:09:38;;;;;;;14.20;11.70;;;3.30;60.80;;;;;;5131814;27;20462;-81
2021/04/09 06:12:07;;;;;;;12.63;11.10;;;3.30;60.50;;;;;;5149896;27;20481;-81
2021/04/09 06:14:33;;;;;;;15.03;11.10;;;3.40;60.30;;;;;;5149817;27;20494;-80
2021/04/09 06:17:02;;;;;;;11.80;10.60;;;3.40;60.00;;;;;;5145913;27;20514;-82
2021/04/09 06:19:29;;;;;;;16.87;10.87;;;3.50;59.80;;;;;;5145166;27;20449;-83
2021/04/09 06:21:56;;;;;;;12.00;10.80;;;3.60;59.50;;;;;;5157009;27;20435;-82
2021/04/09 06:24:23;;;;;;;12.20;11.10;;;3.60;59.10;;;;;;5158392;27;20514;-81
2021/04/09 06:26:50;;;;;;;12.40;11.10;;;3.70;58.70;;;;;;5145967;27;20434;-88
2021/04/09 06:29:18;;;;;;;13.47;11.00;;;3.70;58.60;;;;;;5154921;27;20477;-80
2021/04/09 06:31:45;;;;;;;14.63;11.90;;;3.80;58.80;;;;;;5152271;27;20445;-81
2021/04/09 06:34:11;;;;;;;13.70;10.60;;;3.90;58.30;;;;;;5156965;27;20456;-86
2021/04/09 06:36:37;;;;;;;11.93;10.40;;;4.00;57.90;;;;;;5284799;22;20475;-81
2021/04/09 06:39:05;;;;;;;14.60;11.20;;;3.90;57.70;;;;;;5118104;28;20443;-82
2021/04/09 06:41:33;;;;;;;11.93;10.57;;;3.90;57.50;;;;;;5129715;28;20459;-81
2021/04/09 06:44:00;;;;;;;12.53;11.23;;;4.00;57.50;;;;;;5118281;28;20530;-83
2021/04/09 06:46:30;;;;;;;12.27;10.87;;;4.10;57.30;;;;;;5121916;28;20466;-81
2021/04/09 06:48:56;;;;;;;11.60;10.40;;;4.30;56.80;;;;;;5131690;28;20471;-81
2021/04/09 06:51:26;;;;;;;11.60;10.40;;;4.60;56.50;;;;;;5126670;28;20447;-81
2021/04/09 06:53:53;;;;;;;12.80;10.60;;;4.50;55.90;;;;;;5103320;28;20440;-80
2021/04/09 06:56:22;;;;;;;11.30;10.20;;;4.50;55.80;;;;;;5110445;28;20503;-82
2021/04/09 06:58:50;;;;;;;11.70;10.37;;;4.50;55.60;;;;;;5126559;28;20453;-80
2021/04/09 07:01:20;;;;;;;13.03;10.27;;;4.60;55.40;;;;;;5130208;28;20459;-86
2021/04/09 07:03:47;;;;;;;15.20;11.03;;;4.60;55.10;;;;;;5094443;28;20463;-80
2021/04/09 07:06:13;;;;;;;11.80;10.47;;;4.60;54.90;;;;;;5114741;28;20443;-79
2021/04/09 07:08:41;;;;;;;11.37;9.40;;;4.80;54.80;;;;;;5113839;28;20475;-79
2021/04/09 07:11:08;;;;;;;10.77;9.73;;;5.00;54.50;;;;;;5127223;28;20451;-79
2021/04/09 07:13:46;;;;;;;11.40;9.40;;;5.10;54.10;;;;;;5110020;28;20477;-79
2021/04/09 07:16:13;;;;;;;11.03;9.20;;;5.20;53.80;;;;;;5123285;28;20465;-79
2021/04/09 07:18:47;;;;;;;24.60;19.57;;;5.10;53.40;;;;;;5113587;28;20466;-80
2021/04/09 07:21:25;;;;;;;11.00;9.50;;;5.30;53.50;;;;;;5107041;28;21158;-81
2021/04/09 07:24:21;;;;;;;11.60;10.40;;;5.40;53.20;;;;;;5115532;28;20469;-80
2021/04/09 07:26:49;;;;;;;9.87;8.97;;;5.50;52.90;;;;;;5116616;28;20431;-80
2021/04/09 07:29:38;;;;;;;11.43;10.07;;;5.60;52.70;;;;;;5111449;28;20470;-79
2021/04/09 07:32:35;;;;;;;10.00;9.00;;;5.80;52.60;;;;;;5110147;28;20437;-79
2021/04/09 07:35:05;;;;;;;14.60;8.50;;;5.90;52.30;;;;;;5071458;28;20484;-79
2021/04/09 07:37:33;;;;;;;10.30;9.20;;;6.00;52.00;;;;;;5122435;28;20558;-82
2021/04/09 07:40:04;;;;;;;10.10;8.73;;;6.10;51.90;;;;;;5111921;28;20471;-80
2021/04/09 07:42:33;;;;;;;27.90;11.10;;;6.20;51.30;;;;;;5112662;28;20463;-80
2021/04/09 07:45:02;;;;;;;10.40;9.20;;;6.30;51.20;;;;;;5119594;28;20459;-84
2021/04/09 07:47:32;;;;;;;11.83;8.90;;;6.30;50.80;;;;;;5121490;28;20433;-81
2021/04/09 07:50:10;;;;;;;10.67;9.57;;;6.40;50.70;;;;;;5122385;28;20510;-81
2021/04/09 07:52:43;;;;;;;12.00;9.50;;;6.60;50.50;;;;;;5124745;28;20443;-81
2021/04/09 07:55:19;;;;;;;9.70;7.97;;;6.60;50.20;;;;;;5126418;28;20860;-86
2021/04/09 07:57:48;;;;;;;11.53;7.90;;;6.70;50.00;;;;;;5125175;28;20987;-81
2021/04/09 08:00:20;;;;;;;9.40;8.50;;;6.80;49.70;;;;;;5123956;28;20442;-83
2021/04/09 08:02:47;;;;;;;12.83;9.17;;;6.90;49.60;;;;;;5125474;28;20521;-81
2021/04/09 08:05:15;;;;;;;11.43;9.73;;;7.20;49.70;;;;;;5121136;28;20481;-82
2021/04/09 08:07:42;;;;;;;11.50;8.77;;;7.20;49.50;;;;;;5109635;28;20546;-80
2021/04/09 08:10:14;;;;;;;11.23;8.87;;;7.30;49.40;;;;;;5123988;28;20496;-80
2021/04/09 08:12:43;;;;;;;9.33;8.43;;;7.50;49.30;;;;;;5126503;28;20455;-81
2021/04/09 08:15:18;;;;;;;10.90;9.20;;;7.40;48.50;;;;;;5126031;28;20458;-89
2021/04/09 08:17:57;;;;;;;11.60;9.70;;;7.60;48.90;;;;;;5130862;28;20455;-81
2021/04/09 08:20:24;;;;;;;9.70;8.77;;;7.80;49.00;;;;;;5127991;28;20470;-81
2021/04/09 08:22:52;;;;;;;10.70;8.80;;;7.90;48.30;;;;;;5127466;28;20447;-82
2021/04/09 08:25:20;;;;;;;9.23;8.33;;;7.90;47.60;;;;;;5119548;28;20482;-85
2021/04/09 08:27:48;;;;;;;9.80;7.80;;;8.00;47.30;;;;;;5124032;28;20448;-81
2021/04/09 08:30:24;;;;;;;10.70;8.67;;;8.20;47.20;;;;;;5121836;28;20465;-81
2021/04/09 08:32:54;;;;;;;11.30;8.27;;;8.20;46.90;;;;;;5116391;28;20444;-80
2021/04/09 08:35:21;;;;;;;11.43;8.27;;;8.30;47.20;;;;;;5114110;28;20978;-84
2021/04/09 08:37:48;;;;;;;10.67;9.20;;;8.50;46.90;;;;;;5124555;28;21062;-83
2021/04/09 08:40:15;;;;;;;11.80;8.00;;;8.70;46.80;;;;;;5120251;27;21240;-83
2021/04/09 08:42:44;;;;;;;8.77;7.87;;;8.80;46.70;;;;;;5116800;28;20560;-85
2021/04/09 08:45:14;;;;;;;10.27;8.70;;;8.80;46.20;;;;;;5098878;28;20448;-83
2021/04/09 08:47:43;;;;;;;8.80;7.90;;;8.90;45.90;;;;;;5124581;28;20477;-85
2021/04/09 08:50:11;;;;;;;8.10;7.30;;;9.20;45.70;;;;;;5123171;28;20589;-84
2021/04/09 08:52:40;;;;;;;8.57;7.77;;;9.20;45.30;;;;;;5116649;28;20453;-83
2021/04/09 08:55:08;;;;;;;11.57;8.27;;;9.40;45.20;;;;;;5122425;28;20447;-83
2021/04/09 08:57:36;;;;;;;10.50;8.00;;;9.50;45.00;;;;;;5121846;27;20514;-84
2021/04/09 09:00:07;;;;;;;7.53;6.73;;;9.60;44.70;;;;;;5120152;28;20462;-85
2021/04/09 09:02:44;;;;;;;7.53;6.83;;;9.70;44.20;;;;;;5098052;28;20456;-82
2021/04/09 09:05:13;;;;;;;9.43;8.17;;;9.80;44.20;;;;;;5111850;28;20458;-83
2021/04/09 09:07:59;;;;;;;8.17;7.37;;;9.70;44.00;;;;;;5121723;28;20468;-84
2021/04/09 09:10:45;;;;;;;10.93;8.23;;;9.90;44.00;;;;;;5113237;28;20469;-83
2021/04/09 09:13:28;;;;;;;7.47;6.80;;;10.10;42.90;;;;;;5115283;28;20469;-83
2021/04/09 09:15:58;;;;;;;7.67;6.80;;;10.30;42.80;;;;;;5119393;28;20554;-84
2021/04/09 09:18:54;;;;;;;8.30;6.77;;;10.50;42.50;;;;;;5113129;28;20444;-85
2021/04/09 09:21:33;;;;;;;8.50;6.83;;;10.70;42.20;;;;;;5121681;28;20465;-84
2021/04/09 09:24:01;;;;;;;8.40;7.60;;;11.00;42.30;;;;;;5123094;28;20458;-83
2021/04/09 09:26:33;;;;;;;7.53;6.83;;;10.90;41.70;;;;;;5124349;28;20442;-83
2021/04/09 09:29:20;;;;;;;7.60;6.60;;;10.80;41.40;;;;;;5120969;28;20441;-83
2021/04/09 09:31:59;;;;;;;9.67;7.00;;;10.70;41.20;;;;;;5124169;28;20506;-83
2021/04/09 09:34:47;;;;;;;7.67;6.93;;;11.00;41.30;;;;;;5116834;28;20532;-84
2021/04/09 09:37:19;;;;;;;9.00;6.90;;;11.10;41.10;;;;;;5100053;28;20540;-85
2021/04/09 09:39:52;;;;;;;8.23;7.20;;;11.30;41.00;;;;;;5112017;28;20456;-84
2021/04/09 09:42:46;;;;;;;7.97;6.93;;;11.60;41.10;;;;;;5118992;28;20456;-84
2021/04/09 09:45:32;;;;;;;7.43;6.43;;;11.90;40.80;;;;;;5122552;28;20444;-89
2021/04/09 09:48:14;;;;;;;9.77;7.20;;;12.20;40.60;;;;;;5118629;28;20465;-84
2021/04/09 09:50:44;;;;;;;7.97;7.10;;;12.40;40.30;;;;;;5118842;28;20468;-84
2021/04/09 09:53:12;;;;;;;11.10;7.50;;;12.50;40.10;;;;;;5100219;28;20443;-84
2021/04/09 09:55:40;;;;;;;11.50;7.30;;;12.50;39.80;;;;;;5102138;28;20573;-85
2021/04/09 09:58:13;;;;;;;7.40;6.60;;;12.70;39.60;;;;;;5118380;28;20443;-86
2021/04/09 10:00:41;;;;;;;10.43;6.80;;;12.90;39.00;;;;;;5104610;28;20459;-85
2021/04/09 10:03:17;;;;;;;7.17;6.47;;;13.10;38.80;;;;;;5123625;28;20451;-84
2021/04/09 10:05:46;;;;;;;7.90;6.83;;;12.90;38.50;;;;;;5120041;28;20462;-86
2021/04/09 10:08:14;;;;;;;7.70;6.53;;;13.00;38.80;;;;;;5123359;28;20444;-84
2021/04/09 10:10:51;;;;;;;8.60;6.80;;;13.10;38.50;;;;;;5123138;28;20473;-84
2021/04/09 10:13:26;;;;;;;9.00;6.83;;;13.60;38.10;;;;;;5117872;28;20451;-85
2021/04/09 10:15:54;;;;;;;7.17;6.53;;;13.60;37.90;;;;;;5114404;28;20453;-83
2021/04/09 10:18:22;;;;;;;7.33;6.20;;;14.00;38.10;;;;;;5117375;28;20452;-83
2021/04/09 10:20:50;;;;;;;7.07;5.60;;;14.40;37.60;;;;;;5116236;28;20520;-82
2021/04/09 10:23:23;;;;;;;6.30;5.30;;;14.30;36.40;;;;;;5117687;28;20918;-84
2021/04/09 10:25:54;;;;;;;6.67;5.33;;;14.50;35.50;;;;;;5111006;28;20456;-86
2021/04/09 10:28:23;;;;;;;6.93;6.20;;;14.60;35.40;;;;;;5116243;28;20440;-84
2021/04/09 10:30:53;;;;;;;7.33;5.80;;;14.70;35.10;;;;;;5118613;28;20876;-79
2021/04/09 10:33:20;;;;;;;8.63;6.37;;;15.00;36.10;;;;;;5119979;28;20472;-83
2021/04/09 10:35:48;;;;;;;9.33;7.47;;;15.10;36.10;;;;;;5122329;28;20464;-83
2021/04/09 10:38:17;;;;;;;7.30;6.60;;;15.40;34.60;;;;;;5135644;28;20483;-86
2021/04/09 10:40:56;;;;;;;7.37;6.33;;;15.40;34.10;;;;;;5135133;28;20443;-84
2021/04/09 10:43:30;;;;;;;6.13;5.53;;;15.10;33.60;;;;;;5127120;28;20450;-85
2021/04/09 10:46:11;;;;;;;6.67;6.07;;;15.30;35.40;;;;;;5103888;28;20459;-84
2021/04/09 10:48:39;;;;;;;12.00;7.63;;;15.00;34.40;;;;;;5124431;28;20447;-84
2021/04/09 10:51:10;;;;;;;8.20;7.47;;;15.20;34.40;;;;;;5125974;28;20463;-84
2021/04/09 10:53:39;;;;;;;6.80;6.10;;;15.40;34.10;;;;;;5128819;28;20469;-84
2021/04/09 10:56:10;;;;;;;6.67;6.07;;;15.40;34.20;;;;;;5135679;28;20435;-85
2021/04/09 10:58:37;;;;;;;8.77;7.47;;;15.00;33.90;;;;;;5127162;28;20441;-84
2021/04/09 11:01:04;;;;;;;7.90;6.93;;;15.10;34.20;;;;;;5132252;28;20447;-85
2021/04/09 11:03:32;;;;;;;8.80;6.97;;;15.30;35.00;;;;;;5130306;28;20444;-83
2021/04/09 11:05:59;;;;;;;6.43;5.80;;;15.40;34.60;;;;;;5120284;28;20471;-82
2021/04/09 11:08:31;;;;;;;6.77;6.27;;;15.20;33.40;;;;;;5115531;28;20455;-85
2021/04/09 11:11:05;;;;;;;6.70;6.10;;;15.20;33.30;;;;;;5118084;28;20471;-86
2021/04/09 11:13:32;;;;;;;7.17;6.57;;;15.60;33.20;;;;;;5121530;28;20455;-83
2021/04/09 11:16:02;;;;;;;8.23;6.53;;;15.80;33.90;;;;;;5117554;27;20477;-85
2021/04/09 11:18:48;;;;;;;8.23;6.33;;;15.40;33.50;;;;;;5112586;28;20482;-84
2021/04/09 11:21:15;;;;;;;8.30;5.03;;;15.70;33.40;;;;;;5116369;28;20457;-88
2021/04/09 11:23:43;;;;;;;7.67;5.80;;;16.30;35.60;;;;;;5109021;28;20456;-89
2021/04/09 11:26:20;;;;;;;6.63;5.67;;;16.10;33.60;;;;;;5107586;28;20813;-90
2021/04/09 11:28:56;;;;;;;6.90;5.50;;;16.30;33.00;;;;;;5107122;28;20447;-88
2021/04/09 11:31:25;;;;;;;8.30;6.27;;;16.50;34.60;;;;;;5127307;28;20474;-89
2021/04/09 11:34:04;;;;;;;7.63;5.80;;;16.40;33.90;;;;;;5107278;28;22117;-87
2021/04/09 11:36:39;;;;;;;7.20;6.37;;;16.30;32.80;;;;;;5124469;28;20482;-85
2021/04/09 11:39:11;;;;;;;14.63;6.00;;;16.20;32.70;;;;;;5113856;28;20490;-86
2021/04/09 11:41:40;;;;;;;7.30;6.03;;;16.50;33.60;;;;;;5116666;28;20452;-86
2021/04/09 11:44:40;;;;;;;6.57;5.97;;;16.30;34.40;;;;;;5112098;28;20511;-86
2021/04/09 11:47:21;;;;;;;6.40;5.80;;;16.50;33.80;;;;;;5114913;28;20493;-86
2021/04/09 11:50:00;;;;;;;6.63;6.03;;;16.50;33.10;;;;;;5098196;28;20537;-88
2021/04/09 11:52:28;;;;;;;9.07;6.60;;;16.70;34.40;;;;;;5120101;28;20443;-89
2021/04/09 11:57:36;;;;;;;7.93;6.60;;;17.30;34.80;;;;;;5113993;28;20843;-88
2021/04/09 12:00:06;;;;;;;8.50;7.70;;;16.90;34.40;;;;;;5111315;28;20479;-88
2021/04/09 12:02:33;;;;;;;8.43;7.20;;;17.30;34.80;;;;;;5119172;28;20492;-86
2021/04/09 12:04:59;;;;;;;7.50;6.43;;;17.20;34.60;;;;;;5090299;28;20541;-87
2021/04/09 12:07:27;;;;;;;7.67;6.43;;;17.50;35.10;;;;;;5131775;28;20450;-86
2021/04/09 12:09:58;;;;;;;7.83;6.63;;;17.80;34.30;;;;;;5136500;28;20486;-87
2021/04/09 12:12:27;;;;;;;7.70;7.00;;;17.60;33.60;;;;;;5130022;28;20436;-86
2021/04/09 12:14:56;;;;;;;7.60;6.90;;;17.70;33.90;;;;;;5119275;28;20456;-86
2021/04/09 12:20:10;;;;;;;6.80;6.10;;;17.60;33.60;;;;;;5117357;28;20982;-86
2021/04/09 12:22:37;;;;;;;7.23;6.53;;;17.90;34.20;;;;;;5118048;28;20451;-86
2021/04/09 12:25:08;;;;;;;7.20;6.50;;;18.20;33.90;;;;;;5114412;28;20827;-85
2021/04/09 12:27:36;;;;;;;8.80;6.93;;;17.80;33.30;;;;;;5122135;27;20455;-86
2021/04/09 12:30:04;;;;;;;10.83;6.97;;;17.50;33.50;;;;;;5118192;28;20464;-87
2021/04/09 12:32:30;;;;;;;6.77;6.17;;;17.20;33.50;;;;;;5115396;28;20448;-86
2021/04/09 12:34:57;;;;;;;10.57;6.33;;;17.40;33.80;;;;;;5112636;28;20435;-87
2021/04/09 12:37:24;;;;;;;8.20;6.90;;;17.60;34.20;;;;;;5115065;28;20500;-87
2021/04/09 12:39:59;;;;;;;13.07;6.93;;;17.50;34.20;;;;;;5119891;28;20484;-84
2021/04/09 12:42:26;;;;;;;6.47;5.83;;;17.40;33.90;;;;;;5118587;28;20484;-86
2021/04/09 12:44:55;;;;;;;7.13;6.20;;;17.60;34.70;;;;;;5125320;28;20500;-87
2021/04/09 12:47:22;;;;;;;6.27;5.67;;;18.20;34.10;;;;;;5127779;28;20455;-83
2021/04/09 12:49:48;;;;;;;6.80;5.77;;;18.10;33.90;;;;;;5122275;28;20456;-86
2021/04/09 12:52:16;;;;;;;8.40;5.63;;;18.50;34.00;;;;;;5110323;28;20455;-85
2021/04/09 12:54:43;;;;;;;9.50;6.20;;;18.50;33.30;;;;;;5091096;28;20453;-87
2021/04/09 12:57:10;;;;;;;6.73;6.13;;;18.20;32.60;;;;;;5104729;28;20448;-87
2021/04/09 12:59:38;;;;;;;6.83;5.63;;;17.90;32.70;;;;;;5090872;28;20459;-85